sensor_id;sensor_type;location;lat;lon;timestamp;temperature;humidity
29577;DHT22;16509;53.862;10.672;2023-01-29T00:01:28;2.80;99.90
29577;DHT22;16509;53.862;10.672;2023-01-29T00:03:55;2.90;99.90
29577;DHT22;16509;53.862;10.672;2023-01-29T00:06:21;2.80;99.90
29577;DHT22;16509;53.862;10.672;2023-01-29T00:08:48;2.90;99.90
29577;DHT22;16509;53.862;10.672;2023-01-29T00:11:13;2.80;99.90
29577;DHT22;16509;53.862;10.672;2023-01-29T00:13:41;2.80;99.90
29577;DHT22;16509;53.862;10.672;2023-01-29T00:16:07;3.40;99.90
29577;DHT22;16509;53.862;10.672;2023-01-29T00:18:33;3.00;99.90
29577;DHT22;16509;53.862;10.672;2023-01-29T00:21:02;2.80;99.90
29577;DHT22;16509;53.862;10.672;2023-01-29T00:23:27;2.90;99.90
29577;DHT22;16509;53.862;10.672;2023-01-29T00:25:53;4.60;99.90
29577;DHT22;16509;53.862;10.672;2023-01-29T00:28:19;3.00;99.90
29577;DHT22;16509;53.862;10.672;2023-01-29T00:30:44;2.80;99.90
29577;DHT22;16509;53.862;10.672;2023-01-29T00:33:10;3.00;99.90
29577;DHT22;16509;53.862;10.672;2023-01-29T00:35:39;2.80;99.90
29577;DHT22;16509;53.862;10.672;2023-01-29T00:38:05;2.90;99.90
29577;DHT22;16509;53.862;10.672;2023-01-29T00:40:31;2.70;99.90
29577;DHT22;16509;53.862;10.672;2023-01-29T00:43:16;2.90;99.90
29577;DHT22;16509;53.862;10.672;2023-01-29T00:46:01;2.90;99.90
29577;DHT22;16509;53.862;10.672;2023-01-29T00:48:27;3.10;99.90
29577;DHT22;16509;53.862;10.672;2023-01-29T00:50:52;3.00;99.90
29577;DHT22;16509;53.862;10.672;2023-01-29T00:53:18;4.40;99.90
29577;DHT22;16509;53.862;10.672;2023-01-29T00:55:44;2.90;99.90
29577;DHT22;16509;53.862;10.672;2023-01-29T00:58:09;2.90;99.90
29577;DHT22;16509;53.862;10.672;2023-01-29T01:00:35;3.50;99.90
29577;DHT22;16509;53.862;10.672;2023-01-29T01:03:00;4.20;99.90
29577;DHT22;16509;53.862;10.672;2023-01-29T01:05:32;3.00;99.90
29577;DHT22;16509;53.862;10.672;2023-01-29T01:07:58;3.10;99.90
29577;DHT22;16509;53.862;10.672;2023-01-29T01:10:29;3.00;99.90
29577;DHT22;16509;53.862;10.672;2023-01-29T01:13:00;3.10;99.90
29577;DHT22;16509;53.862;10.672;2023-01-29T01:15:29;3.00;99.90
29577;DHT22;16509;53.862;10.672;2023-01-29T01:17:58;3.00;99.90
29577;DHT22;16509;53.862;10.672;2023-01-29T01:20:25;2.90;99.90
29577;DHT22;16509;53.862;10.672;2023-01-29T01:22:52;3.00;99.90
29577;DHT22;16509;53.862;10.672;2023-01-29T01:25:18;2.90;99.90
29577;DHT22;16509;53.862;10.672;2023-01-29T01:27:44;3.50;99.90
29577;DHT22;16509;53.862;10.672;2023-01-29T01:30:14;3.20;99.90
29577;DHT22;16509;53.862;10.672;2023-01-29T01:32:41;3.20;99.90
29577;DHT22;16509;53.862;10.672;2023-01-29T01:35:08;3.20;99.90
29577;DHT22;16509;53.862;10.672;2023-01-29T01:37:34;3.30;99.90
29577;DHT22;16509;53.862;10.672;2023-01-29T01:40:10;3.20;99.90
29577;DHT22;16509;53.862;10.672;2023-01-29T01:42:43;3.30;99.90
29577;DHT22;16509;53.862;10.672;2023-01-29T01:45:33;3.10;99.90
29577;DHT22;16509;53.862;10.672;2023-01-29T01:48:08;3.30;99.90
29577;DHT22;16509;53.862;10.672;2023-01-29T01:50:44;3.30;99.90
29577;DHT22;16509;53.862;10.672;2023-01-29T01:53:13;3.10;99.90
29577;DHT22;16509;53.862;10.672;2023-01-29T01:55:53;3.10;99.90
29577;DHT22;16509;53.862;10.672;2023-01-29T01:58:41;4.50;99.90
29577;DHT22;16509;53.862;10.672;2023-01-29T02:01:08;3.40;99.90
29577;DHT22;16509;53.862;10.672;2023-01-29T02:03:46;3.20;99.90
29577;DHT22;16509;53.862;10.672;2023-01-29T02:06:32;3.30;99.90
29577;DHT22;16509;53.862;10.672;2023-01-29T02:09:24;3.30;99.90
29577;DHT22;16509;53.862;10.672;2023-01-29T02:12:06;3.30;99.90
29577;DHT22;16509;53.862;10.672;2023-01-29T02:14:34;3.40;99.90
29577;DHT22;16509;53.862;10.672;2023-01-29T02:17:12;3.40;99.90
29577;DHT22;16509;53.862;10.672;2023-01-29T02:20:02;3.40;99.90
29577;DHT22;16509;53.862;10.672;2023-01-29T02:44:41;3.40;99.90
29577;DHT22;16509;53.862;10.672;2023-01-29T02:47:29;3.50;99.90
29577;DHT22;16509;53.862;10.672;2023-01-29T02:53:45;3.40;99.90
29577;DHT22;16509;53.862;10.672;2023-01-29T02:58:30;3.40;99.90
29577;DHT22;16509;53.862;10.672;2023-01-29T03:01:03;3.40;99.90
29577;DHT22;16509;53.862;10.672;2023-01-29T03:03:35;3.40;99.90
29577;DHT22;16509;53.862;10.672;2023-01-29T03:06:58;3.40;99.90
29577;DHT22;16509;53.862;10.672;2023-01-29T03:09:32;3.40;99.90
29577;DHT22;16509;53.862;10.672;2023-01-29T03:12:27;3.40;99.90
29577;DHT22;16509;53.862;10.672;2023-01-29T03:15:11;3.40;99.90
29577;DHT22;16509;53.862;10.672;2023-01-29T03:18:02;3.50;99.90
29577;DHT22;16509;53.862;10.672;2023-01-29T03:20:42;3.50;99.90
29577;DHT22;16509;53.862;10.672;2023-01-29T03:23:18;4.00;99.90
29577;DHT22;16509;53.862;10.672;2023-01-29T03:25:50;3.50;99.90
29577;DHT22;16509;53.862;10.672;2023-01-29T03:28:36;3.20;99.90
29577;DHT22;16509;53.862;10.672;2023-01-29T03:31:22;3.50;99.90
29577;DHT22;16509;53.862;10.672;2023-01-29T03:34:12;3.50;99.90
29577;DHT22;16509;53.862;10.672;2023-01-29T03:37:12;3.60;99.90
29577;DHT22;16509;53.862;10.672;2023-01-29T03:39:40;4.40;99.90
29577;DHT22;16509;53.862;10.672;2023-01-29T03:50:18;3.70;99.90
29577;DHT22;16509;53.862;10.672;2023-01-29T03:58:44;4.40;99.90
29577;DHT22;16509;53.862;10.672;2023-01-29T04:01:17;3.60;99.90
29577;DHT22;16509;53.862;10.672;2023-01-29T04:03:53;3.70;99.90
29577;DHT22;16509;53.862;10.672;2023-01-29T04:06:23;3.60;99.90
29577;DHT22;16509;53.862;10.672;2023-01-29T04:08:58;3.50;99.90
29577;DHT22;16509;53.862;10.672;2023-01-29T04:11:27;3.50;99.90
29577;DHT22;16509;53.862;10.672;2023-01-29T04:13:55;3.60;99.90
29577;DHT22;16509;53.862;10.672;2023-01-29T04:16:30;3.60;99.90
29577;DHT22;16509;53.862;10.672;2023-01-29T04:18:58;3.60;99.90
29577;DHT22;16509;53.862;10.672;2023-01-29T04:21:24;3.40;99.90
29577;DHT22;16509;53.862;10.672;2023-01-29T04:23:50;4.90;99.90
29577;DHT22;16509;53.862;10.672;2023-01-29T04:37:35;3.60;99.90
29577;DHT22;16509;53.862;10.672;2023-01-29T04:40:34;3.60;99.90
29577;DHT22;16509;53.862;10.672;2023-01-29T04:43:13;3.60;99.90
29577;DHT22;16509;53.862;10.672;2023-01-29T04:46:08;3.50;99.90
29577;DHT22;16509;53.862;10.672;2023-01-29T04:51:21;3.60;99.90
29577;DHT22;16509;53.862;10.672;2023-01-29T04:54:01;3.50;99.90
29577;DHT22;16509;53.862;10.672;2023-01-29T04:56:36;4.00;99.90
29577;DHT22;16509;53.862;10.672;2023-01-29T04:59:11;3.60;99.90
29577;DHT22;16509;53.862;10.672;2023-01-29T05:01:38;3.40;99.90
29577;DHT22;16509;53.862;10.672;2023-01-29T05:04:08;3.50;99.90
29577;DHT22;16509;53.862;10.672;2023-01-29T05:06:35;3.40;99.90
29577;DHT22;16509;53.862;10.672;2023-01-29T05:09:01;3.40;99.90
29577;DHT22;16509;53.862;10.672;2023-01-29T05:11:29;3.70;99.90
29577;DHT22;16509;53.862;10.672;2023-01-29T05:13:56;3.60;99.90
29577;DHT22;16509;53.862;10.672;2023-01-29T05:16:38;3.50;99.90
29577;DHT22;16509;53.862;10.672;2023-01-29T05:19:11;3.50;99.90
29577;DHT22;16509;53.862;10.672;2023-01-29T05:21:39;3.70;99.90
29577;DHT22;16509;53.862;10.672;2023-01-29T05:26:37;3.70;99.90
29577;DHT22;16509;53.862;10.672;2023-01-29T05:29:23;3.60;99.90
29577;DHT22;16509;53.862;10.672;2023-01-29T05:31:48;3.90;99.90
29577;DHT22;16509;53.862;10.672;2023-01-29T05:34:14;3.70;99.90
29577;DHT22;16509;53.862;10.672;2023-01-29T05:36:39;3.70;99.90
29577;DHT22;16509;53.862;10.672;2023-01-29T05:39:05;3.60;99.90
29577;DHT22;16509;53.862;10.672;2023-01-29T05:41:31;3.80;99.90
29577;DHT22;16509;53.862;10.672;2023-01-29T05:43:56;3.60;99.90
29577;DHT22;16509;53.862;10.672;2023-01-29T05:46:22;3.60;99.90
29577;DHT22;16509;53.862;10.672;2023-01-29T05:48:47;3.60;99.90
29577;DHT22;16509;53.862;10.672;2023-01-29T05:51:13;3.90;99.90
29577;DHT22;16509;53.862;10.672;2023-01-29T05:53:38;3.80;99.90
29577;DHT22;16509;53.862;10.672;2023-01-29T05:56:04;3.70;99.90
29577;DHT22;16509;53.862;10.672;2023-01-29T05:58:31;3.80;99.90
29577;DHT22;16509;53.862;10.672;2023-01-29T06:00:57;4.30;99.90
29577;DHT22;16509;53.862;10.672;2023-01-29T06:03:22;3.90;99.90
29577;DHT22;16509;53.862;10.672;2023-01-29T06:05:48;3.50;99.90
29577;DHT22;16509;53.862;10.672;2023-01-29T06:08:14;3.80;99.90
29577;DHT22;16509;53.862;10.672;2023-01-29T06:10:39;3.80;99.90
29577;DHT22;16509;53.862;10.672;2023-01-29T06:13:05;3.90;99.90
29577;DHT22;16509;53.862;10.672;2023-01-29T06:15:31;3.80;99.90
29577;DHT22;16509;53.862;10.672;2023-01-29T06:17:57;5.10;99.90
29577;DHT22;16509;53.862;10.672;2023-01-29T06:20:23;3.80;99.90
29577;DHT22;16509;53.862;10.672;2023-01-29T06:22:49;3.60;99.90
29577;DHT22;16509;53.862;10.672;2023-01-29T06:25:14;4.30;99.90
29577;DHT22;16509;53.862;10.672;2023-01-29T06:27:40;3.60;99.90
29577;DHT22;16509;53.862;10.672;2023-01-29T06:30:06;3.80;99.90
29577;DHT22;16509;53.862;10.672;2023-01-29T06:32:32;3.70;99.90
29577;DHT22;16509;53.862;10.672;2023-01-29T06:34:57;3.50;99.90
29577;DHT22;16509;53.862;10.672;2023-01-29T06:37:23;3.50;99.90
29577;DHT22;16509;53.862;10.672;2023-01-29T06:39:49;3.50;99.90
29577;DHT22;16509;53.862;10.672;2023-01-29T06:42:14;3.50;99.90
29577;DHT22;16509;53.862;10.672;2023-01-29T06:44:40;3.90;99.90
29577;DHT22;16509;53.862;10.672;2023-01-29T06:47:05;3.40;99.90
29577;DHT22;16509;53.862;10.672;2023-01-29T06:49:31;3.70;99.90
29577;DHT22;16509;53.862;10.672;2023-01-29T06:51:56;4.60;99.90
29577;DHT22;16509;53.862;10.672;2023-01-29T06:54:22;3.50;99.90
29577;DHT22;16509;53.862;10.672;2023-01-29T06:56:48;3.50;99.90
29577;DHT22;16509;53.862;10.672;2023-01-29T06:59:13;3.50;99.90
29577;DHT22;16509;53.862;10.672;2023-01-29T07:01:39;3.70;99.90
29577;DHT22;16509;53.862;10.672;2023-01-29T07:04:09;3.50;99.90
29577;DHT22;16509;53.862;10.672;2023-01-29T07:06:35;3.80;99.90
29577;DHT22;16509;53.862;10.672;2023-01-29T07:09:02;3.50;99.90
29577;DHT22;16509;53.862;10.672;2023-01-29T07:11:27;4.10;99.90
29577;DHT22;16509;53.862;10.672;2023-01-29T07:13:53;3.40;99.90
29577;DHT22;16509;53.862;10.672;2023-01-29T07:16:18;3.40;99.90
29577;DHT22;16509;53.862;10.672;2023-01-29T07:18:44;3.40;99.90
29577;DHT22;16509;53.862;10.672;2023-01-29T07:21:10;3.40;99.90
29577;DHT22;16509;53.862;10.672;2023-01-29T07:23:36;3.40;99.90
29577;DHT22;16509;53.862;10.672;2023-01-29T07:26:03;3.90;99.90
29577;DHT22;16509;53.862;10.672;2023-01-29T07:28:29;3.60;99.90
29577;DHT22;16509;53.862;10.672;2023-01-29T07:30:58;3.50;99.90
29577;DHT22;16509;53.862;10.672;2023-01-29T07:33:24;3.60;99.90
29577;DHT22;16509;53.862;10.672;2023-01-29T07:35:50;3.60;99.90
29577;DHT22;16509;53.862;10.672;2023-01-29T07:38:16;3.40;99.90
29577;DHT22;16509;53.862;10.672;2023-01-29T07:40:42;3.40;99.90
29577;DHT22;16509;53.862;10.672;2023-01-29T07:43:08;3.40;99.90
29577;DHT22;16509;53.862;10.672;2023-01-29T07:45:36;3.30;99.90
29577;DHT22;16509;53.862;10.672;2023-01-29T07:48:02;3.50;99.90
29577;DHT22;16509;53.862;10.672;2023-01-29T07:50:32;3.70;99.90
29577;DHT22;16509;53.862;10.672;2023-01-29T07:52:58;3.70;99.90
29577;DHT22;16509;53.862;10.672;2023-01-29T07:55:24;3.50;99.90
29577;DHT22;16509;53.862;10.672;2023-01-29T07:58:02;3.50;99.90
29577;DHT22;16509;53.862;10.672;2023-01-29T08:00:29;4.40;99.90
29577;DHT22;16509;53.862;10.672;2023-01-29T08:03:05;3.50;99.90
29577;DHT22;16509;53.862;10.672;2023-01-29T08:05:31;3.70;99.90
29577;DHT22;16509;53.862;10.672;2023-01-29T08:07:57;3.60;99.90
29577;DHT22;16509;53.862;10.672;2023-01-29T08:10:23;3.60;99.90
29577;DHT22;16509;53.862;10.672;2023-01-29T08:12:54;3.80;99.90
29577;DHT22;16509;53.862;10.672;2023-01-29T08:15:20;4.10;99.90
29577;DHT22;16509;53.862;10.672;2023-01-29T08:17:46;4.00;99.90
29577;DHT22;16509;53.862;10.672;2023-01-29T08:20:11;4.90;99.90
29577;DHT22;16509;53.862;10.672;2023-01-29T08:22:37;4.00;99.90
29577;DHT22;16509;53.862;10.672;2023-01-29T08:25:03;4.30;99.90
29577;DHT22;16509;53.862;10.672;2023-01-29T08:27:29;4.00;99.90
29577;DHT22;16509;53.862;10.672;2023-01-29T08:29:55;4.50;99.90
29577;DHT22;16509;53.862;10.672;2023-01-29T08:32:20;4.70;99.90
29577;DHT22;16509;53.862;10.672;2023-01-29T08:34:46;3.70;99.90
29577;DHT22;16509;53.862;10.672;2023-01-29T08:37:11;3.70;99.90
29577;DHT22;16509;53.862;10.672;2023-01-29T08:39:37;3.70;99.90
29577;DHT22;16509;53.862;10.672;2023-01-29T08:42:03;3.70;99.90
29577;DHT22;16509;53.862;10.672;2023-01-29T08:44:28;3.80;99.90
29577;DHT22;16509;53.862;10.672;2023-01-29T08:46:54;3.70;99.90
29577;DHT22;16509;53.862;10.672;2023-01-29T08:49:19;3.80;99.90
29577;DHT22;16509;53.862;10.672;2023-01-29T08:51:45;3.80;99.90
29577;DHT22;16509;53.862;10.672;2023-01-29T08:54:10;3.90;99.90
29577;DHT22;16509;53.862;10.672;2023-01-29T08:56:36;3.90;99.90
29577;DHT22;16509;53.862;10.672;2023-01-29T08:59:02;3.80;99.90
29577;DHT22;16509;53.862;10.672;2023-01-29T09:01:27;3.90;99.90
29577;DHT22;16509;53.862;10.672;2023-01-29T09:03:53;3.90;99.90
29577;DHT22;16509;53.862;10.672;2023-01-29T09:06:18;4.30;99.90
29577;DHT22;16509;53.862;10.672;2023-01-29T09:08:44;4.00;99.90
29577;DHT22;16509;53.862;10.672;2023-01-29T09:11:10;3.90;99.90
29577;DHT22;16509;53.862;10.672;2023-01-29T09:13:35;4.00;99.90
29577;DHT22;16509;53.862;10.672;2023-01-29T09:16:03;4.00;99.90
29577;DHT22;16509;53.862;10.672;2023-01-29T09:18:29;4.20;99.90
29577;DHT22;16509;53.862;10.672;2023-01-29T09:20:56;5.10;99.90
29577;DHT22;16509;53.862;10.672;2023-01-29T09:23:22;4.00;99.90
29577;DHT22;16509;53.862;10.672;2023-01-29T09:25:48;3.90;99.90
29577;DHT22;16509;53.862;10.672;2023-01-29T09:28:14;3.90;99.90
29577;DHT22;16509;53.862;10.672;2023-01-29T09:30:42;4.10;99.90
29577;DHT22;16509;53.862;10.672;2023-01-29T09:33:10;3.90;99.90
29577;DHT22;16509;53.862;10.672;2023-01-29T09:35:36;4.00;99.90
29577;DHT22;16509;53.862;10.672;2023-01-29T09:38:02;3.90;99.90
29577;DHT22;16509;53.862;10.672;2023-01-29T09:43:19;4.20;99.90
29577;DHT22;16509;53.862;10.672;2023-01-29T09:46:06;4.00;99.90
29577;DHT22;16509;53.862;10.672;2023-01-29T09:48:34;4.30;99.90
29577;DHT22;16509;53.862;10.672;2023-01-29T09:51:04;4.10;99.90
29577;DHT22;16509;53.862;10.672;2023-01-29T09:53:45;4.00;99.90
29577;DHT22;16509;53.862;10.672;2023-01-29T09:56:15;4.00;99.90
29577;DHT22;16509;53.862;10.672;2023-01-29T09:58:44;3.80;99.90
29577;DHT22;16509;53.862;10.672;2023-01-29T10:01:14;3.90;99.90
29577;DHT22;16509;53.862;10.672;2023-01-29T10:06:24;4.00;99.90
29577;DHT22;16509;53.862;10.672;2023-01-29T10:09:27;4.10;99.90
29577;DHT22;16509;53.862;10.672;2023-01-29T10:14:56;3.90;99.90
29577;DHT22;16509;53.862;10.672;2023-01-29T10:25:01;4.00;99.90
29577;DHT22;16509;53.862;10.672;2023-01-29T10:27:33;4.00;99.90
29577;DHT22;16509;53.862;10.672;2023-01-29T10:30:06;4.00;99.90
29577;DHT22;16509;53.862;10.672;2023-01-29T10:32:42;4.10;99.90
29577;DHT22;16509;53.862;10.672;2023-01-29T10:37:43;4.10;99.90
29577;DHT22;16509;53.862;10.672;2023-01-29T10:40:19;4.00;99.90
29577;DHT22;16509;53.862;10.672;2023-01-29T10:42:55;4.10;99.90
29577;DHT22;16509;53.862;10.672;2023-01-29T10:45:48;4.50;99.90
29577;DHT22;16509;53.862;10.672;2023-01-29T10:54:06;4.10;99.90
29577;DHT22;16509;53.862;10.672;2023-01-29T10:56:53;4.10;99.90
29577;DHT22;16509;53.862;10.672;2023-01-29T11:02:18;4.10;99.90
29577;DHT22;16509;53.862;10.672;2023-01-29T11:04:46;4.00;99.90
29577;DHT22;16509;53.862;10.672;2023-01-29T11:07:12;4.00;99.90
29577;DHT22;16509;53.862;10.672;2023-01-29T11:09:59;4.40;99.90
29577;DHT22;16509;53.862;10.672;2023-01-29T11:12:30;4.00;99.90
29577;DHT22;16509;53.862;10.672;2023-01-29T11:17:24;5.00;99.90
29577;DHT22;16509;53.862;10.672;2023-01-29T11:19:51;4.10;99.90
29577;DHT22;16509;53.862;10.672;2023-01-29T11:22:22;3.70;99.90
29577;DHT22;16509;53.862;10.672;2023-01-29T11:27:44;4.10;99.90
29577;DHT22;16509;53.862;10.672;2023-01-29T11:30:23;4.00;99.90
29577;DHT22;16509;53.862;10.672;2023-01-29T11:32:56;4.10;99.90
29577;DHT22;16509;53.862;10.672;2023-01-29T11:35:24;4.10;99.90
29577;DHT22;16509;53.862;10.672;2023-01-29T11:37:50;4.20;99.90
29577;DHT22;16509;53.862;10.672;2023-01-29T11:42:49;3.80;99.90
29577;DHT22;16509;53.862;10.672;2023-01-29T11:45:28;3.90;99.90
29577;DHT22;16509;53.862;10.672;2023-01-29T11:47:57;4.20;99.90
29577;DHT22;16509;53.862;10.672;2023-01-29T11:50:31;4.30;99.90
29577;DHT22;16509;53.862;10.672;2023-01-29T11:53:00;3.90;99.90
29577;DHT22;16509;53.862;10.672;2023-01-29T11:55:32;4.20;99.90
29577;DHT22;16509;53.862;10.672;2023-01-29T11:58:10;4.20;99.90
29577;DHT22;16509;53.862;10.672;2023-01-29T12:00:39;5.00;99.90
29577;DHT22;16509;53.862;10.672;2023-01-29T12:03:21;3.90;99.90
29577;DHT22;16509;53.862;10.672;2023-01-29T12:06:06;4.20;99.90
29577;DHT22;16509;53.862;10.672;2023-01-29T12:08:36;4.20;99.90
29577;DHT22;16509;53.862;10.672;2023-01-29T12:13:57;4.20;99.90
29577;DHT22;16509;53.862;10.672;2023-01-29T12:16:45;4.30;99.90
29577;DHT22;16509;53.862;10.672;2023-01-29T12:19:33;4.20;99.90
29577;DHT22;16509;53.862;10.672;2023-01-29T12:22:09;4.20;99.90
29577;DHT22;16509;53.862;10.672;2023-01-29T12:24:49;4.20;99.90
29577;DHT22;16509;53.862;10.672;2023-01-29T12:27:42;4.20;99.90
29577;DHT22;16509;53.862;10.672;2023-01-29T12:30:27;4.30;99.90
29577;DHT22;16509;53.862;10.672;2023-01-29T12:35:44;4.20;99.90
29577;DHT22;16509;53.862;10.672;2023-01-29T12:38:22;4.20;99.90
29577;DHT22;16509;53.862;10.672;2023-01-29T12:43:52;4.20;99.90
29577;DHT22;16509;53.862;10.672;2023-01-29T12:46:28;4.10;99.90
29577;DHT22;16509;53.862;10.672;2023-01-29T12:48:57;4.20;99.90
29577;DHT22;16509;53.862;10.672;2023-01-29T12:51:30;4.00;99.90
29577;DHT22;16509;53.862;10.672;2023-01-29T12:56:38;4.20;99.90
29577;DHT22;16509;53.862;10.672;2023-01-29T12:59:43;4.20;99.90
29577;DHT22;16509;53.862;10.672;2023-01-29T13:02:30;4.20;99.90
29577;DHT22;16509;53.862;10.672;2023-01-29T13:05:02;4.20;99.90
29577;DHT22;16509;53.862;10.672;2023-01-29T13:07:36;4.90;99.90
29577;DHT22;16509;53.862;10.672;2023-01-29T13:10:16;4.20;99.90
29577;DHT22;16509;53.862;10.672;2023-01-29T13:12:53;4.20;99.90
29577;DHT22;16509;53.862;10.672;2023-01-29T13:20:59;4.20;99.90
29577;DHT22;16509;53.862;10.672;2023-01-29T13:23:33;4.10;99.90
29577;DHT22;16509;53.862;10.672;2023-01-29T13:26:00;4.30;99.90
29577;DHT22;16509;53.862;10.672;2023-01-29T13:28:26;4.20;99.90
29577;DHT22;16509;53.862;10.672;2023-01-29T13:33:37;4.30;99.90
29577;DHT22;16509;53.862;10.672;2023-01-29T13:36:13;4.30;99.90
29577;DHT22;16509;53.862;10.672;2023-01-29T13:38:41;4.60;99.90
29577;DHT22;16509;53.862;10.672;2023-01-29T13:41:09;4.20;99.90
29577;DHT22;16509;53.862;10.672;2023-01-29T13:43:40;4.30;99.90
29577;DHT22;16509;53.862;10.672;2023-01-29T13:46:15;4.20;99.90
29577;DHT22;16509;53.862;10.672;2023-01-29T13:48:44;4.30;99.90
29577;DHT22;16509;53.862;10.672;2023-01-29T13:51:18;4.30;99.90
29577;DHT22;16509;53.862;10.672;2023-01-29T13:54:03;4.10;99.90
29577;DHT22;16509;53.862;10.672;2023-01-29T13:58:58;4.80;99.90
29577;DHT22;16509;53.862;10.672;2023-01-29T14:06:46;4.20;99.90
29577;DHT22;16509;53.862;10.672;2023-01-29T14:12:47;4.40;99.90
29577;DHT22;16509;53.862;10.672;2023-01-29T14:17:14;4.30;99.90
29577;DHT22;16509;53.862;10.672;2023-01-29T14:19:48;4.30;99.90
29577;DHT22;16509;53.862;10.672;2023-01-29T14:22:22;4.30;99.90
29577;DHT22;16509;53.862;10.672;2023-01-29T14:24:53;4.20;99.90
29577;DHT22;16509;53.862;10.672;2023-01-29T14:27:22;4.10;99.90
29577;DHT22;16509;53.862;10.672;2023-01-29T14:29:50;4.00;99.90
29577;DHT22;16509;53.862;10.672;2023-01-29T14:32:24;4.00;99.90
29577;DHT22;16509;53.862;10.672;2023-01-29T14:34:58;4.10;99.90
29577;DHT22;16509;53.862;10.672;2023-01-29T14:37:34;4.20;99.90
29577;DHT22;16509;53.862;10.672;2023-01-29T14:42:44;4.10;99.90
29577;DHT22;16509;53.862;10.672;2023-01-29T14:45:29;4.20;99.90
29577;DHT22;16509;53.862;10.672;2023-01-29T14:47:58;4.20;99.90
29577;DHT22;16509;53.862;10.672;2023-01-29T15:00:59;4.20;99.90
29577;DHT22;16509;53.862;10.672;2023-01-29T15:03:44;4.20;99.90
29577;DHT22;16509;53.862;10.672;2023-01-29T15:06:27;4.30;99.90
29577;DHT22;16509;53.862;10.672;2023-01-29T15:12:12;4.30;99.90
29577;DHT22;16509;53.862;10.672;2023-01-29T15:17:40;4.30;99.90
29577;DHT22;16509;53.862;10.672;2023-01-29T15:22:51;4.30;99.90
29577;DHT22;16509;53.862;10.672;2023-01-29T15:25:17;4.30;99.90
29577;DHT22;16509;53.862;10.672;2023-01-29T15:27:46;4.30;99.90
29577;DHT22;16509;53.862;10.672;2023-01-29T15:30:25;4.40;99.90
29577;DHT22;16509;53.862;10.672;2023-01-29T15:32:53;4.30;99.90
29577;DHT22;16509;53.862;10.672;2023-01-29T15:40:32;4.20;99.90
29577;DHT22;16509;53.862;10.672;2023-01-29T15:42:58;4.30;99.90
29577;DHT22;16509;53.862;10.672;2023-01-29T15:45:27;4.30;99.90
29577;DHT22;16509;53.862;10.672;2023-01-29T15:48:18;4.90;99.90
29577;DHT22;16509;53.862;10.672;2023-01-29T15:50:42;4.10;99.90
29577;DHT22;16509;53.862;10.672;2023-01-29T15:53:14;4.80;99.90
29577;DHT22;16509;53.862;10.672;2023-01-29T15:55:42;4.20;99.90
29577;DHT22;16509;53.862;10.672;2023-01-29T15:58:14;4.40;99.90
29577;DHT22;16509;53.862;10.672;2023-01-29T16:00:50;4.20;99.90
29577;DHT22;16509;53.862;10.672;2023-01-29T16:03:26;4.20;99.90
29577;DHT22;16509;53.862;10.672;2023-01-29T16:05:53;4.50;99.90
29577;DHT22;16509;53.862;10.672;2023-01-29T16:08:24;4.20;99.90
29577;DHT22;16509;53.862;10.672;2023-01-29T16:11:02;4.10;99.90
29577;DHT22;16509;53.862;10.672;2023-01-29T16:13:39;4.20;99.90
29577;DHT22;16509;53.862;10.672;2023-01-29T16:16:23;4.20;99.90
29577;DHT22;16509;53.862;10.672;2023-01-29T16:18:49;4.40;99.90
29577;DHT22;16509;53.862;10.672;2023-01-29T16:21:38;4.10;99.90
29577;DHT22;16509;53.862;10.672;2023-01-29T16:24:09;4.30;99.90
29577;DHT22;16509;53.862;10.672;2023-01-29T16:26:43;4.20;99.90
29577;DHT22;16509;53.862;10.672;2023-01-29T16:29:15;4.30;99.90
29577;DHT22;16509;53.862;10.672;2023-01-29T16:31:43;4.10;99.90
29577;DHT22;16509;53.862;10.672;2023-01-29T16:34:25;4.10;99.90
29577;DHT22;16509;53.862;10.672;2023-01-29T16:36:52;4.20;99.90
29577;DHT22;16509;53.862;10.672;2023-01-29T16:39:24;4.00;99.90
29577;DHT22;16509;53.862;10.672;2023-01-29T16:44:53;4.10;99.90
29577;DHT22;16509;53.862;10.672;2023-01-29T16:47:24;3.90;99.90
29577;DHT22;16509;53.862;10.672;2023-01-29T16:49:59;4.40;99.90
29577;DHT22;16509;53.862;10.672;2023-01-29T16:52:29;3.90;99.90
29577;DHT22;16509;53.862;10.672;2023-01-29T16:55:13;3.90;99.90
29577;DHT22;16509;53.862;10.672;2023-01-29T16:57:40;3.80;99.90
29577;DHT22;16509;53.862;10.672;2023-01-29T17:00:18;3.80;99.90
29577;DHT22;16509;53.862;10.672;2023-01-29T17:02:45;3.80;99.90
29577;DHT22;16509;53.862;10.672;2023-01-29T17:05:24;3.60;99.90
29577;DHT22;16509;53.862;10.672;2023-01-29T17:07:51;3.80;99.90
29577;DHT22;16509;53.862;10.672;2023-01-29T17:10:18;3.60;99.90
29577;DHT22;16509;53.862;10.672;2023-01-29T17:12:54;3.70;99.90
29577;DHT22;16509;53.862;10.672;2023-01-29T17:15:32;3.70;99.90
29577;DHT22;16509;53.862;10.672;2023-01-29T17:17:59;3.70;99.90
29577;DHT22;16509;53.862;10.672;2023-01-29T17:20:24;3.60;99.90
29577;DHT22;16509;53.862;10.672;2023-01-29T17:22:50;3.80;99.90
29577;DHT22;16509;53.862;10.672;2023-01-29T17:25:16;3.50;99.90
29577;DHT22;16509;53.862;10.672;2023-01-29T17:27:43;3.40;99.90
29577;DHT22;16509;53.862;10.672;2023-01-29T17:30:17;3.70;99.90
29577;DHT22;16509;53.862;10.672;2023-01-29T17:32:43;3.60;99.90
29577;DHT22;16509;53.862;10.672;2023-01-29T17:35:13;3.60;99.90
29577;DHT22;16509;53.862;10.672;2023-01-29T17:37:39;3.70;99.90
29577;DHT22;16509;53.862;10.672;2023-01-29T17:40:16;3.70;99.90
29577;DHT22;16509;53.862;10.672;2023-01-29T17:42:43;3.70;99.90
29577;DHT22;16509;53.862;10.672;2023-01-29T17:45:11;3.60;99.90
29577;DHT22;16509;53.862;10.672;2023-01-29T17:47:37;3.70;99.90
29577;DHT22;16509;53.862;10.672;2023-01-29T17:50:20;3.60;99.90
29577;DHT22;16509;53.862;10.672;2023-01-29T17:52:48;3.70;99.90
29577;DHT22;16509;53.862;10.672;2023-01-29T17:55:14;4.10;99.90
29577;DHT22;16509;53.862;10.672;2023-01-29T17:57:40;4.50;99.90
29577;DHT22;16509;53.862;10.672;2023-01-29T18:00:24;3.50;99.90
29577;DHT22;16509;53.862;10.672;2023-01-29T18:02:49;3.70;99.90
29577;DHT22;16509;53.862;10.672;2023-01-29T18:05:16;3.50;99.90
29577;DHT22;16509;53.862;10.672;2023-01-29T18:07:44;4.10;99.90
29577;DHT22;16509;53.862;10.672;2023-01-29T18:10:16;3.40;99.90
29577;DHT22;16509;53.862;10.672;2023-01-29T18:12:43;3.80;99.90
29577;DHT22;16509;53.862;10.672;2023-01-29T18:15:10;4.90;99.90
29577;DHT22;16509;53.862;10.672;2023-01-29T18:17:36;3.70;99.90
29577;DHT22;16509;53.862;10.672;2023-01-29T18:20:03;3.40;99.90
29577;DHT22;16509;53.862;10.672;2023-01-29T18:22:37;3.70;99.90
29577;DHT22;16509;53.862;10.672;2023-01-29T18:25:03;4.20;99.90
29577;DHT22;16509;53.862;10.672;2023-01-29T18:27:28;3.70;99.90
29577;DHT22;16509;53.862;10.672;2023-01-29T18:29:57;3.40;99.90
29577;DHT22;16509;53.862;10.672;2023-01-29T18:32:23;3.60;99.90